createdAt,value
2018-03-11T00:01:04.918Z,20.10
2018-03-11T00:03:32.401Z,19.70
2018-03-11T00:05:59.894Z,17.30
2018-03-11T00:08:27.373Z,18.70
2018-03-11T00:10:54.867Z,19.70
2018-03-11T00:13:22.413Z,21.03
2018-03-11T00:15:49.935Z,23.53
2018-03-11T00:18:17.402Z,24.73
2018-03-11T00:20:45.183Z,27.20
2018-03-11T00:23:13.480Z,25.60
2018-03-11T00:25:40.972Z,23.67
2018-03-11T00:28:09.207Z,24.83
2018-03-11T00:30:37.478Z,25.07
2018-03-11T00:33:04.974Z,25.60
2018-03-11T00:35:32.463Z,26.10
2018-03-11T00:37:59.924Z,23.57
2018-03-11T00:40:27.412Z,29.43
2018-03-11T00:42:54.867Z,26.03
2018-03-11T00:45:22.346Z,27.37
2018-03-11T00:47:49.816Z,26.93
2018-03-11T00:50:17.280Z,26.90
2018-03-11T00:52:44.782Z,27.10
2018-03-11T00:55:12.270Z,25.90
2018-03-11T00:57:39.738Z,23.50
2018-03-11T01:00:07.214Z,23.40
2018-03-11T01:02:34.738Z,26.67
2018-03-11T01:05:02.230Z,26.07
2018-03-11T01:07:29.702Z,28.63
2018-03-11T01:09:58.041Z,27.17
2018-03-11T01:12:25.522Z,26.90
2018-03-11T01:14:52.982Z,25.57
2018-03-11T01:17:20.468Z,25.90
2018-03-11T01:19:48.715Z,27.97
2018-03-11T01:22:16.191Z,26.50
2018-03-11T01:24:43.676Z,26.57
2018-03-11T01:27:11.224Z,26.40
2018-03-11T01:29:39.493Z,25.60
2018-03-11T01:32:07.739Z,25.10
2018-03-11T01:34:35.210Z,23.00
2018-03-11T01:37:03.429Z,26.93
2018-03-11T01:39:30.949Z,22.83
2018-03-11T01:41:59.214Z,24.90
2018-03-11T01:44:26.678Z,21.23
2018-03-11T01:46:54.192Z,21.10
2018-03-11T01:49:21.710Z,23.00
2018-03-11T01:51:49.201Z,23.00
2018-03-11T01:54:16.660Z,24.70
2018-03-11T01:56:44.142Z,24.43
2018-03-11T01:59:11.633Z,25.07
2018-03-11T02:01:39.086Z,27.10
2018-03-11T02:04:06.598Z,27.00
2018-03-11T02:06:34.064Z,25.67
2018-03-11T02:09:01.530Z,24.20
2018-03-11T02:11:29.013Z,24.73
2018-03-11T02:13:56.547Z,22.83
2018-03-11T02:16:24.024Z,23.90
2018-03-11T02:18:51.506Z,22.37
2018-03-11T02:21:18.983Z,22.77
2018-03-11T02:23:47.257Z,22.97
2018-03-11T02:26:14.764Z,26.73
2018-03-11T02:28:42.247Z,25.00
2018-03-11T02:31:10.029Z,24.90
2018-03-11T02:33:37.497Z,26.00
2018-03-11T02:36:05.761Z,24.40
2018-03-11T02:38:33.225Z,25.17
2018-03-11T02:41:01.089Z,24.70
2018-03-11T02:43:28.547Z,22.53
2018-03-11T02:45:56.026Z,24.83
2018-03-11T02:48:24.283Z,25.50
2018-03-11T02:50:52.527Z,26.67
2018-03-11T02:53:20.028Z,25.80
2018-03-11T02:55:47.482Z,23.10
2018-03-11T02:58:14.976Z,23.97
2018-03-11T03:00:42.487Z,23.93
2018-03-11T03:03:09.977Z,25.37
2018-03-11T03:05:38.204Z,24.60
2018-03-11T03:08:05.767Z,26.07
2018-03-11T03:10:33.230Z,24.33
2018-03-11T03:13:00.713Z,24.50
2018-03-11T03:15:29.054Z,25.40
2018-03-11T03:17:57.369Z,26.57
2018-03-11T03:20:25.687Z,26.27
2018-03-11T03:22:53.156Z,26.83
2018-03-11T03:25:20.670Z,27.87
2018-03-11T03:27:48.134Z,25.47
2018-03-11T03:30:15.621Z,24.70
2018-03-11T03:32:43.113Z,24.73
2018-03-11T03:35:10.612Z,26.13
2018-03-11T03:37:38.085Z,27.03
2018-03-11T03:40:06.315Z,25.13
2018-03-11T03:42:33.798Z,24.27
2018-03-11T03:45:01.313Z,23.90
2018-03-11T03:47:29.558Z,24.83
2018-03-11T03:49:57.044Z,24.90
2018-03-11T03:52:24.518Z,24.70
2018-03-11T03:54:52.030Z,24.20
2018-03-11T03:57:20.273Z,25.60
2018-03-11T03:59:47.777Z,23.30
2018-03-11T04:02:16.011Z,22.20
2018-03-11T04:04:43.495Z,23.00
2018-03-11T04:07:11.726Z,23.17
2018-03-11T04:09:39.193Z,26.43
2018-03-11T04:12:06.710Z,24.83
2018-03-11T04:14:34.118Z,26.30
2018-03-11T04:17:01.602Z,26.63
2018-03-11T04:19:29.853Z,27.10
2018-03-11T04:21:57.308Z,25.70
2018-03-11T04:24:24.819Z,28.53
2018-03-11T04:26:52.308Z,30.77
2018-03-11T04:29:19.778Z,27.17
2018-03-11T04:31:47.258Z,29.40
2018-03-11T04:34:14.738Z,30.20
2018-03-11T04:36:43.031Z,27.27
2018-03-11T04:39:11.282Z,29.97
2018-03-11T04:41:38.754Z,28.40
2018-03-11T04:44:06.986Z,27.63
2018-03-11T04:46:34.458Z,31.27
2018-03-11T04:49:01.947Z,27.93
2018-03-11T04:51:30.175Z,29.20
2018-03-11T04:53:57.650Z,26.97
2018-03-11T04:56:25.146Z,27.33
2018-03-11T04:58:53.387Z,27.87
2018-03-11T05:01:20.853Z,28.40
2018-03-11T05:03:48.320Z,29.67
2018-03-11T05:06:15.809Z,30.20
2018-03-11T05:08:43.281Z,28.13
2018-03-11T05:11:11.493Z,31.10
2018-03-11T05:13:38.973Z,29.07
2018-03-11T05:16:06.572Z,29.00
2018-03-11T05:18:34.050Z,26.87
2018-03-11T05:21:01.915Z,30.20
2018-03-11T05:23:29.406Z,30.97
2018-03-11T05:25:57.647Z,33.43
2018-03-11T05:28:25.100Z,29.33
2018-03-11T05:30:52.580Z,31.60
2018-03-11T05:33:20.056Z,30.10
2018-03-11T05:35:47.726Z,29.63
2018-03-11T05:38:15.185Z,30.10
2018-03-11T05:40:42.676Z,29.97
2018-03-11T05:43:10.187Z,29.03
2018-03-11T05:45:37.663Z,30.60
2018-03-11T05:48:05.119Z,34.10
2018-03-11T05:50:32.599Z,35.00
2018-03-11T05:53:00.830Z,31.20
2018-03-11T05:55:28.300Z,32.53
2018-03-11T05:57:55.769Z,34.50
2018-03-11T06:00:23.237Z,32.37
2018-03-11T06:02:50.734Z,36.40
2018-03-11T06:05:18.211Z,32.00
2018-03-11T06:07:45.707Z,32.87
2018-03-11T06:10:13.154Z,33.37
2018-03-11T06:12:40.622Z,32.80
2018-03-11T06:15:08.073Z,31.50
2018-03-11T06:17:35.570Z,31.57
2018-03-11T06:20:03.044Z,32.97
2018-03-11T06:22:30.522Z,32.30
2018-03-11T06:24:57.994Z,32.50
2018-03-11T06:27:25.461Z,29.40
2018-03-11T06:29:52.918Z,27.93
2018-03-11T06:32:20.520Z,27.07
2018-03-11T06:34:48.754Z,24.70
2018-03-11T06:37:16.258Z,25.20
2018-03-11T06:39:44.490Z,21.40
2018-03-11T06:42:11.970Z,21.30
2018-03-11T06:44:39.449Z,23.93
2018-03-11T06:47:07.747Z,21.33
2018-03-11T06:49:35.982Z,19.40
2018-03-11T06:52:03.446Z,17.53
2018-03-11T06:54:31.035Z,19.90
2018-03-11T06:56:59.265Z,22.20
2018-03-11T06:59:26.763Z,22.00
2018-03-11T07:01:54.991Z,23.10
2018-03-11T07:04:22.454Z,22.60
2018-03-11T07:06:49.937Z,21.97
2018-03-11T07:09:17.423Z,22.23
2018-03-11T07:11:44.959Z,21.90
2018-03-11T07:14:13.206Z,21.40
2018-03-11T07:16:40.667Z,20.17
2018-03-11T07:19:08.145Z,17.63
2018-03-11T07:21:35.874Z,18.27
2018-03-11T07:24:03.365Z,15.97
2018-03-11T07:26:30.878Z,17.40
2018-03-11T07:28:58.376Z,17.30
2018-03-11T07:31:25.890Z,15.70
2018-03-11T07:33:53.476Z,15.87
2018-03-11T07:36:20.953Z,13.83
2018-03-11T07:38:48.541Z,9.63
2018-03-11T07:41:16.777Z,9.80
2018-03-11T07:43:44.259Z,7.20
2018-03-11T07:46:11.728Z,6.20
2018-03-11T07:48:39.180Z,5.30
2018-03-11T07:51:07.109Z,5.00
2018-03-11T07:53:34.599Z,3.80
2018-03-11T07:56:02.074Z,3.33
2018-03-11T07:58:30.296Z,3.80
2018-03-11T08:00:57.779Z,4.93
2018-03-11T08:03:25.254Z,3.67
2018-03-11T08:05:52.742Z,3.63
2018-03-11T08:08:20.248Z,4.30
2018-03-11T08:10:47.744Z,4.30
2018-03-11T08:13:16.528Z,3.30
2018-03-11T08:15:44.805Z,4.20
2018-03-11T08:18:12.291Z,3.80
2018-03-11T08:20:39.766Z,4.33
2018-03-11T08:23:07.262Z,4.20
2018-03-11T08:25:34.740Z,4.60
2018-03-11T08:28:02.988Z,3.90
2018-03-11T08:30:30.490Z,4.30
2018-03-11T08:32:57.973Z,5.80
2018-03-11T08:35:25.494Z,4.27
2018-03-11T08:37:52.971Z,4.00
2018-03-11T08:40:21.259Z,4.17
2018-03-11T08:42:48.778Z,4.63
2018-03-11T08:45:16.305Z,4.47
2018-03-11T08:47:43.781Z,5.10
2018-03-11T08:50:11.271Z,6.70
2018-03-11T08:52:39.525Z,9.00
2018-03-11T08:55:06.993Z,6.17
2018-03-11T08:57:35.265Z,4.10
2018-03-11T09:00:02.764Z,3.97
2018-03-11T09:02:30.271Z,4.17
2018-03-11T09:04:57.800Z,3.90
2018-03-11T09:07:26.016Z,4.37
2018-03-11T09:09:53.565Z,4.33
2018-03-11T09:12:21.018Z,3.80
2018-03-11T09:14:49.391Z,3.90
2018-03-11T09:17:16.874Z,5.10
2018-03-11T09:19:44.410Z,4.07
2018-03-11T09:22:11.894Z,4.43
2018-03-11T09:24:39.355Z,4.03
2018-03-11T09:27:06.857Z,4.50
2018-03-11T09:29:34.347Z,4.47
2018-03-11T09:32:01.849Z,2.97
2018-03-11T09:34:29.310Z,3.40
2018-03-11T09:36:57.547Z,5.90
2018-03-11T09:39:25.018Z,3.20
2018-03-11T09:41:52.486Z,2.80
2018-03-11T09:44:19.951Z,3.37
2018-03-11T09:46:48.216Z,2.70
2018-03-11T09:49:15.676Z,2.60
2018-03-11T09:51:43.162Z,2.57
2018-03-11T09:54:11.494Z,2.90
2018-03-11T09:56:38.981Z,3.10
2018-03-11T09:59:06.497Z,3.47
2018-03-11T10:01:33.989Z,3.37
2018-03-11T10:04:01.489Z,2.60
2018-03-11T10:06:29.027Z,2.87
2018-03-11T10:08:56.513Z,2.77
2018-03-11T10:11:23.979Z,2.87
2018-03-11T10:13:51.600Z,3.07
2018-03-11T10:16:19.155Z,2.90
2018-03-11T10:18:47.392Z,3.50
2018-03-11T10:21:14.928Z,3.17
2018-03-11T10:23:42.441Z,3.23
2018-03-11T10:26:10.014Z,2.60
2018-03-11T10:28:37.716Z,2.60
2018-03-11T10:31:05.246Z,2.97
2018-03-11T10:33:32.783Z,3.27
2018-03-11T10:36:00.410Z,2.90
2018-03-11T10:38:27.929Z,2.40
2018-03-11T10:40:55.457Z,3.00
2018-03-11T10:43:23.124Z,2.20
2018-03-11T10:45:50.572Z,2.37
2018-03-11T10:48:18.242Z,2.73
2018-03-11T10:50:45.851Z,2.30
2018-03-11T10:53:13.481Z,2.20
2018-03-11T10:55:41.124Z,3.03
2018-03-11T10:58:08.712Z,2.77
2018-03-11T11:00:42.040Z,2.10
2018-03-11T11:03:15.155Z,2.90
2018-03-11T11:05:42.680Z,1.97
2018-03-11T11:08:10.985Z,1.50
2018-03-11T11:10:38.475Z,1.90
2018-03-11T11:13:06.051Z,1.60
2018-03-11T11:15:33.525Z,1.50
2018-03-11T11:18:01.779Z,1.63
2018-03-11T11:20:30.177Z,1.97
2018-03-11T11:22:59.416Z,1.30
2018-03-11T11:25:27.310Z,1.50
2018-03-11T11:27:55.871Z,1.80
2018-03-11T11:30:23.430Z,2.67
2018-03-11T11:32:51.488Z,1.47
2018-03-11T11:35:19.089Z,1.10
2018-03-11T11:37:47.368Z,1.60
2018-03-11T11:40:14.970Z,1.50
2018-03-11T11:42:43.231Z,1.30
2018-03-11T11:45:12.185Z,1.37
2018-03-11T11:47:40.094Z,2.17
2018-03-11T11:50:07.901Z,3.47
2018-03-11T11:52:35.379Z,3.03
2018-03-11T11:55:02.854Z,2.63
2018-03-11T11:57:30.406Z,2.20
2018-03-11T11:59:57.976Z,2.20
2018-03-11T12:02:25.544Z,2.00
2018-03-11T12:04:53.042Z,2.20
2018-03-11T12:07:21.411Z,1.87
2018-03-11T12:09:49.654Z,2.10
2018-03-11T12:12:17.136Z,2.10
2018-03-11T12:14:44.608Z,2.17
2018-03-11T12:17:12.875Z,1.90
2018-03-11T12:19:40.370Z,1.70
2018-03-11T12:22:07.853Z,1.93
2018-03-11T12:24:35.353Z,2.27
2018-03-11T12:27:03.678Z,1.93
2018-03-11T12:29:31.145Z,1.70
2018-03-11T12:31:58.634Z,1.70
2018-03-11T12:34:26.143Z,2.03
2018-03-11T12:36:53.638Z,1.70
2018-03-11T12:39:21.150Z,1.80
2018-03-11T12:41:48.961Z,2.83
2018-03-11T12:44:16.455Z,2.53
2018-03-11T12:46:44.690Z,1.67
2018-03-11T12:49:12.223Z,2.30
2018-03-11T12:51:39.691Z,2.70
2018-03-11T12:54:09.109Z,3.23
2018-03-11T12:56:36.698Z,2.30
2018-03-11T12:59:04.461Z,1.87
2018-03-11T13:01:31.940Z,2.20
2018-03-11T13:04:00.188Z,2.40
2018-03-11T13:06:27.667Z,2.10
2018-03-11T13:08:55.931Z,2.00
2018-03-11T13:11:23.398Z,2.10
2018-03-11T13:13:50.880Z,2.23
2018-03-11T13:16:19.123Z,1.23
2018-03-11T13:18:46.582Z,1.53
2018-03-11T13:21:14.745Z,2.80
2018-03-11T13:23:42.272Z,2.10
2018-03-11T13:26:09.855Z,2.03
2018-03-11T13:28:46.050Z,2.20
2018-03-11T13:31:13.524Z,2.90
2018-03-11T13:33:53.793Z,1.90
2018-03-11T13:36:21.303Z,2.00
2018-03-11T13:39:00.510Z,1.93
2018-03-11T13:41:28.036Z,2.10
2018-03-11T13:43:55.600Z,1.77
2018-03-11T13:46:35.703Z,1.83
2018-03-11T13:49:03.214Z,1.90
2018-03-11T13:51:43.325Z,1.70
2018-03-11T13:54:10.812Z,1.63
2018-03-11T13:56:39.117Z,1.23
2018-03-11T13:59:06.591Z,1.60
2018-03-11T14:01:34.091Z,2.37
2018-03-11T14:04:01.850Z,1.57
2018-03-11T14:06:29.327Z,1.60
2018-03-11T14:08:57.574Z,0.90
2018-03-11T14:11:25.060Z,1.13
2018-03-11T14:13:52.533Z,1.77
2018-03-11T14:16:20.776Z,1.67
2018-03-11T14:18:48.303Z,1.47
2018-03-11T14:21:15.800Z,1.40
2018-03-11T14:23:43.291Z,1.60
2018-03-11T14:26:10.828Z,1.03
2018-03-11T14:28:38.288Z,1.70
2018-03-11T14:31:05.782Z,1.20
2018-03-11T14:33:34.006Z,1.43
2018-03-11T14:36:01.507Z,1.43
2018-03-11T14:38:29.738Z,1.47
2018-03-11T14:40:58.018Z,1.30
2018-03-11T14:43:25.491Z,1.10
2018-03-11T14:45:52.960Z,1.53
2018-03-11T14:48:20.457Z,1.60
2018-03-11T14:50:47.925Z,1.27
2018-03-11T14:53:15.421Z,1.30
2018-03-11T14:55:42.922Z,1.00
2018-03-11T14:58:10.500Z,1.00
2018-03-11T15:00:37.960Z,1.50
2018-03-11T15:03:05.461Z,1.20
2018-03-11T15:05:32.919Z,1.60
2018-03-11T15:08:00.391Z,1.37
2018-03-11T15:10:27.847Z,1.20
2018-03-11T15:12:55.322Z,1.23
2018-03-11T15:15:22.795Z,1.20
2018-03-11T15:17:50.275Z,1.70
2018-03-11T15:20:17.798Z,2.30
2018-03-11T15:22:46.029Z,1.90
2018-03-11T15:25:13.511Z,1.50
2018-03-11T15:27:40.983Z,1.50
2018-03-11T15:30:09.231Z,1.77
2018-03-11T15:32:36.744Z,2.03
2018-03-11T15:35:04.218Z,1.30
2018-03-11T15:37:31.694Z,1.93
2018-03-11T15:39:59.165Z,1.60
2018-03-11T15:42:26.630Z,1.70
2018-03-11T15:44:54.110Z,1.90
2018-03-11T15:47:22.345Z,1.97
2018-03-11T15:49:49.818Z,2.47
2018-03-11T15:52:17.282Z,1.63
2018-03-11T15:54:44.785Z,1.87
2018-03-11T15:57:13.312Z,1.90
2018-03-11T15:59:40.805Z,2.10
2018-03-11T16:02:09.042Z,1.50
2018-03-11T16:04:36.529Z,2.20
2018-03-11T16:07:04.023Z,2.03
2018-03-11T16:09:31.519Z,2.30
2018-03-11T16:11:59.014Z,3.47
2018-03-11T16:14:27.261Z,2.60
2018-03-11T16:16:54.751Z,2.03
2018-03-11T16:19:23.091Z,2.17
2018-03-11T16:21:50.556Z,2.17
2018-03-11T16:24:28.381Z,2.20
2018-03-11T16:26:46.300Z,2.43
2018-03-11T16:29:13.792Z,3.53
2018-03-11T16:31:42.054Z,3.27
2018-03-11T16:34:09.527Z,3.03
2018-03-11T16:36:37.763Z,2.23
2018-03-11T16:39:05.297Z,2.03
2018-03-11T16:41:32.751Z,2.33
2018-03-11T16:44:00.239Z,2.43
2018-03-11T16:46:27.749Z,2.60
2018-03-11T16:48:55.229Z,2.60
2018-03-11T16:51:22.789Z,3.10
2018-03-11T16:53:50.272Z,2.67
2018-03-11T16:56:17.753Z,3.07
2018-03-11T16:58:45.234Z,4.47
2018-03-11T17:01:13.479Z,2.53
2018-03-11T17:03:40.983Z,2.80
2018-03-11T17:06:08.450Z,2.80
2018-03-11T17:08:35.936Z,3.57
2018-03-11T17:11:03.423Z,3.47
2018-03-11T17:13:31.169Z,5.30
2018-03-11T17:15:58.627Z,4.67
2018-03-11T17:18:26.391Z,4.33
2018-03-11T17:20:53.872Z,4.23
2018-03-11T17:23:21.390Z,4.40
2018-03-11T17:25:48.942Z,3.50
2018-03-11T17:28:16.428Z,4.50
2018-03-11T17:30:43.953Z,4.80
2018-03-11T17:33:12.264Z,3.60
2018-03-11T17:35:40.142Z,4.10
2018-03-11T17:38:07.611Z,4.47
2018-03-11T17:40:35.099Z,5.70
2018-03-11T17:43:02.560Z,4.27
2018-03-11T17:45:30.079Z,4.07
2018-03-11T17:47:57.572Z,4.17
2018-03-11T17:50:25.861Z,3.17
2018-03-11T17:52:53.294Z,4.13
2018-03-11T17:55:21.555Z,4.47
2018-03-11T17:57:49.250Z,5.00
2018-03-11T18:00:16.746Z,6.10
2018-03-11T18:02:44.207Z,8.20
2018-03-11T18:05:11.735Z,7.90
2018-03-11T18:07:39.246Z,5.40
2018-03-11T18:10:07.112Z,6.20
2018-03-11T18:12:34.663Z,8.80
2018-03-11T18:15:02.874Z,18.53
2018-03-11T18:17:30.377Z,11.63
2018-03-11T18:19:57.837Z,16.60
2018-03-11T18:22:25.323Z,21.17
2018-03-11T18:24:52.848Z,22.17
2018-03-11T18:27:22.222Z,18.63
2018-03-11T18:29:50.869Z,17.00
2018-03-11T18:32:18.646Z,4.37
2018-03-11T18:34:46.338Z,6.90
2018-03-11T18:37:14.589Z,6.23
2018-03-11T18:39:42.200Z,7.40
2018-03-11T18:42:10.943Z,7.53
2018-03-11T18:44:39.465Z,6.60
2018-03-11T18:47:07.038Z,5.33
2018-03-11T18:49:34.874Z,6.30
2018-03-11T18:52:03.206Z,4.80
2018-03-11T18:54:30.726Z,5.13
2018-03-11T18:56:58.999Z,6.90
2018-03-11T18:59:26.428Z,7.03
2018-03-11T19:01:53.938Z,6.50
2018-03-11T19:04:21.505Z,5.83
2018-03-11T19:06:49.062Z,8.07
2018-03-11T19:09:16.585Z,6.43
2018-03-11T19:11:44.835Z,3.63
2018-03-11T19:14:12.356Z,5.13
2018-03-11T19:16:39.831Z,3.37
2018-03-11T19:19:07.310Z,3.27
2018-03-11T19:21:34.784Z,2.93
2018-03-11T19:24:02.306Z,3.23
2018-03-11T19:26:29.991Z,2.63
2018-03-11T19:28:57.527Z,3.03
2018-03-11T19:31:25.023Z,3.87
2018-03-11T19:33:52.545Z,4.00
2018-03-11T19:36:20.019Z,3.00
2018-03-11T19:38:48.281Z,3.10
2018-03-11T19:41:15.760Z,2.33
2018-03-11T19:43:43.447Z,2.50
2018-03-11T19:46:10.914Z,2.20
2018-03-11T19:48:39.153Z,3.10
2018-03-11T19:51:06.615Z,3.60
2018-03-11T19:53:34.090Z,2.90
2018-03-11T19:56:01.598Z,3.50
2018-03-11T19:58:29.050Z,3.63
2018-03-11T20:00:56.542Z,4.50
2018-03-11T20:03:24.115Z,4.30
2018-03-11T20:05:51.579Z,4.13
2018-03-11T20:08:19.045Z,3.60
2018-03-11T20:10:46.522Z,3.53
2018-03-11T20:13:14.754Z,4.40
2018-03-11T20:15:42.216Z,3.57
2018-03-11T20:18:09.742Z,4.27
2018-03-11T20:20:37.222Z,4.80
2018-03-11T20:23:04.687Z,3.80
2018-03-11T20:25:32.159Z,5.73
2018-03-11T20:27:59.619Z,6.00
2018-03-11T20:30:27.086Z,7.27
2018-03-11T20:32:54.602Z,6.87
2018-03-11T20:46:26.364Z,5.23
2018-03-11T20:48:53.884Z,6.10
2018-03-11T20:51:21.414Z,4.50
2018-03-11T20:53:48.883Z,4.53
2018-03-11T20:56:16.382Z,5.37
2018-03-11T20:58:44.632Z,6.20
2018-03-11T21:01:12.139Z,5.17
2018-03-11T21:03:39.626Z,5.90
2018-03-11T21:06:07.217Z,6.23
2018-03-11T21:08:34.719Z,6.50
2018-03-11T21:11:02.180Z,8.70
2018-03-11T21:13:29.679Z,9.77
2018-03-11T21:15:57.169Z,9.93
2018-03-11T21:18:24.671Z,9.07
2018-03-11T21:20:52.182Z,10.13
2018-03-11T21:23:19.655Z,9.87
2018-03-11T21:25:47.907Z,10.47
2018-03-11T21:28:17.395Z,9.47
2018-03-11T21:30:45.181Z,9.00
2018-03-11T21:33:12.663Z,8.97
2018-03-11T21:35:40.915Z,11.17
2018-03-11T21:38:08.430Z,11.07
2018-03-11T21:40:35.911Z,12.53
2018-03-11T21:43:03.407Z,11.17
2018-03-11T21:45:31.646Z,8.80
2018-03-11T21:47:59.189Z,28.50
2018-03-11T21:50:26.675Z,29.70
2018-03-11T21:52:54.153Z,22.07
2018-03-11T21:55:21.681Z,13.43
2018-03-11T21:57:49.153Z,9.40
2018-03-11T22:00:16.643Z,11.50
2018-03-11T22:02:44.471Z,11.37
2018-03-11T22:05:12.055Z,11.97
2018-03-11T22:07:39.551Z,13.20
2018-03-11T22:10:07.102Z,11.43
2018-03-11T22:12:34.600Z,12.10
2018-03-11T22:15:02.202Z,11.37
2018-03-11T22:17:30.463Z,18.30
2018-03-11T22:19:57.963Z,11.47
2018-03-11T22:22:25.461Z,15.97
2018-03-11T22:24:53.115Z,16.47
2018-03-11T22:27:20.627Z,15.23
2018-03-11T22:29:48.906Z,14.90
2018-03-11T22:32:16.518Z,14.20
2018-03-11T22:34:43.989Z,15.13
2018-03-11T22:37:11.618Z,14.97
2018-03-11T22:39:39.094Z,17.70
2018-03-11T22:42:07.050Z,28.57
2018-03-11T22:44:34.543Z,23.07
2018-03-11T22:47:02.163Z,24.00
2018-03-11T22:49:29.659Z,26.20
2018-03-11T22:51:57.316Z,20.47
2018-03-11T22:54:28.767Z,23.13
2018-03-11T22:56:56.267Z,25.47
2018-03-11T22:59:24.510Z,23.57
2018-03-11T23:01:52.009Z,20.67
2018-03-11T23:04:20.237Z,22.93
2018-03-11T23:06:47.733Z,19.87
2018-03-11T23:09:15.982Z,17.87
2018-03-11T23:11:43.470Z,21.30
2018-03-11T23:14:11.719Z,18.27
2018-03-11T23:16:39.223Z,19.40
2018-03-11T23:19:18.519Z,17.13
2018-03-11T23:21:45.951Z,15.73
2018-03-11T23:24:13.451Z,17.20
2018-03-11T23:26:41.699Z,17.33
2018-03-11T23:29:09.191Z,15.90
2018-03-11T23:31:37.507Z,14.27
2018-03-11T23:34:05.094Z,16.33
2018-03-11T23:36:32.576Z,13.50
2018-03-11T23:39:00.080Z,15.40
2018-03-11T23:41:27.569Z,15.93
2018-03-11T23:43:55.357Z,13.53
2018-03-11T23:46:22.838Z,12.80
2018-03-11T23:48:51.078Z,14.37
2018-03-11T23:51:18.570Z,12.67
2018-03-11T23:53:46.810Z,11.60
2018-03-11T23:56:14.336Z,12.40
2018-03-11T23:58:41.806Z,12.53
